createdAt,value
2019-02-08T00:01:29.361Z,150.87
2019-02-08T00:04:33.122Z,150.40
2019-02-08T00:07:36.870Z,158.60
2019-02-08T00:10:40.601Z,149.33
2019-02-08T00:13:44.338Z,159.80
2019-02-08T00:16:48.088Z,138.27
2019-02-08T00:19:51.809Z,147.90
2019-02-08T00:22:55.507Z,146.70
2019-02-08T00:26:02.514Z,149.37
2019-02-08T00:29:06.718Z,152.90
2019-02-08T00:32:10.466Z,153.97
2019-02-08T00:35:14.237Z,145.73
2019-02-08T00:38:17.971Z,142.50
2019-02-08T00:41:21.734Z,153.53
2019-02-08T00:44:25.400Z,154.67
2019-02-08T00:47:29.211Z,155.17
2019-02-08T00:50:32.975Z,161.47
2019-02-08T00:53:36.714Z,158.47
2019-02-08T00:56:40.453Z,161.60
2019-02-08T00:59:44.511Z,181.73
2019-02-08T01:02:49.230Z,166.70
2019-02-08T01:05:52.993Z,163.80
2019-02-08T01:08:59.031Z,176.67
2019-02-08T01:12:03.247Z,190.30
2019-02-08T01:15:08.502Z,180.90
2019-02-08T01:18:12.964Z,178.23
2019-02-08T01:21:17.139Z,174.30
2019-02-08T01:24:21.333Z,179.87
2019-02-08T01:27:25.428Z,191.07
2019-02-08T01:30:30.347Z,188.73
2019-02-08T01:33:34.465Z,176.13
2019-02-08T01:36:38.583Z,198.57
2019-02-08T01:39:42.746Z,170.93
2019-02-08T01:42:46.887Z,178.00
2019-02-08T01:45:51.049Z,176.77
2019-02-08T01:48:55.292Z,192.57
2019-02-08T01:51:59.384Z,179.17
2019-02-08T01:55:03.528Z,180.37
2019-02-08T01:58:07.704Z,165.33
2019-02-08T02:01:11.871Z,167.77
2019-02-08T02:04:15.964Z,170.30
2019-02-08T02:07:20.080Z,162.43
2019-02-08T02:10:35.234Z,150.77
2019-02-08T02:13:39.351Z,151.10
2019-02-08T02:16:43.448Z,173.60
2019-02-08T02:19:47.692Z,148.73
2019-02-08T02:22:51.776Z,143.43
2019-02-08T02:25:55.964Z,153.80
2019-02-08T02:29:00.063Z,155.03
2019-02-08T02:32:04.186Z,152.67
2019-02-08T02:35:08.943Z,156.07
2019-02-08T02:38:13.153Z,156.77
2019-02-08T02:41:17.318Z,143.63
2019-02-08T02:44:21.527Z,155.10
2019-02-08T02:47:25.616Z,154.43
2019-02-08T02:50:29.739Z,164.40
2019-02-08T02:53:33.824Z,167.27
2019-02-08T02:56:37.952Z,174.80
2019-02-08T02:59:42.122Z,170.83
2019-02-08T03:02:46.385Z,167.80
2019-02-08T03:05:50.572Z,177.73
2019-02-08T03:08:54.687Z,180.20
2019-02-08T03:11:58.856Z,183.37
2019-02-08T03:15:02.976Z,195.37
2019-02-08T03:18:07.098Z,202.47
2019-02-08T03:21:11.213Z,180.17
2019-02-08T03:24:15.296Z,185.23
2019-02-08T03:27:19.436Z,191.70
2019-02-08T03:30:31.982Z,188.63
2019-02-08T03:33:36.156Z,187.30
2019-02-08T03:36:40.340Z,189.90
2019-02-08T03:39:44.535Z,182.40
2019-02-08T03:42:48.628Z,191.07
2019-02-08T03:45:53.915Z,190.40
2019-02-08T03:48:58.101Z,194.60
2019-02-08T03:52:02.217Z,185.10
2019-02-08T03:55:06.335Z,195.20
2019-02-08T03:58:11.813Z,188.77
2019-02-08T04:01:15.997Z,184.20
2019-02-08T04:04:20.252Z,174.07
2019-02-08T04:07:24.419Z,174.70
2019-02-08T04:10:28.610Z,172.03
2019-02-08T04:13:32.777Z,173.37
2019-02-08T04:16:36.899Z,173.57
2019-02-08T04:19:40.994Z,175.13
2019-02-08T04:22:45.107Z,170.43
2019-02-08T04:25:49.139Z,170.33
2019-02-08T04:28:53.339Z,165.40
2019-02-08T04:31:57.677Z,171.73
2019-02-08T04:35:01.884Z,171.30
2019-02-08T04:38:05.991Z,172.53
2019-02-08T04:41:10.108Z,162.60
2019-02-08T04:44:14.231Z,159.50
2019-02-08T04:47:18.442Z,174.10
2019-02-08T04:50:23.191Z,165.13
2019-02-08T04:53:27.325Z,171.60
2019-02-08T04:56:31.496Z,161.67
2019-02-08T04:59:35.632Z,169.00
2019-02-08T05:02:39.718Z,167.27
2019-02-08T05:05:43.836Z,156.13
2019-02-08T05:08:47.951Z,172.23
2019-02-08T05:11:52.155Z,171.30
2019-02-08T05:14:56.302Z,162.77
2019-02-08T05:18:00.443Z,163.40
2019-02-08T05:21:04.604Z,166.53
2019-02-08T05:24:08.809Z,159.53
2019-02-08T05:27:12.955Z,162.67
2019-02-08T05:30:22.556Z,157.10
2019-02-08T05:33:26.875Z,157.70
2019-02-08T05:36:31.069Z,164.80
2019-02-08T05:39:35.152Z,155.57
2019-02-08T05:42:39.264Z,158.50
2019-02-08T05:45:43.453Z,162.63
2019-02-08T05:48:47.688Z,166.37
2019-02-08T05:51:51.780Z,169.97
2019-02-08T05:54:55.921Z,172.90
2019-02-08T05:58:00.121Z,159.87
2019-02-08T06:01:04.330Z,166.43
2019-02-08T06:04:08.506Z,165.70
2019-02-08T06:07:12.703Z,166.07
2019-02-08T06:10:16.803Z,169.47
2019-02-08T06:13:20.929Z,163.00
2019-02-08T06:16:25.025Z,157.97
2019-02-08T06:19:29.226Z,166.90
2019-02-08T06:22:33.547Z,172.77
2019-02-08T06:25:37.767Z,168.80
2019-02-08T06:28:41.923Z,170.80
2019-02-08T06:31:46.137Z,168.03
2019-02-08T06:34:50.313Z,167.43
2019-02-08T06:37:54.542Z,166.83
2019-02-08T06:40:58.714Z,173.10
2019-02-08T06:44:02.844Z,164.33
2019-02-08T06:47:07.017Z,162.83
2019-02-08T06:50:12.472Z,169.33
2019-02-08T06:53:16.618Z,158.53
2019-02-08T06:56:38.560Z,169.17
2019-02-08T06:59:51.996Z,168.40
2019-02-08T07:03:19.874Z,156.50
2019-02-08T07:06:41.503Z,166.87
2019-02-08T07:10:05.636Z,158.10
2019-02-08T07:13:29.671Z,166.27
2019-02-08T07:16:51.312Z,168.13
2019-02-08T07:20:09.992Z,176.60
2019-02-08T07:23:31.815Z,169.10
2019-02-08T07:26:53.767Z,162.73
2019-02-08T07:30:07.629Z,163.53
2019-02-08T07:33:20.009Z,181.37
2019-02-08T07:36:40.917Z,164.03
2019-02-08T07:40:12.827Z,153.13
2019-02-08T07:43:22.063Z,150.73
2019-02-08T07:46:45.461Z,159.93
2019-02-08T07:49:56.787Z,153.70
2019-02-08T07:53:26.096Z,149.87
2019-02-08T07:57:07.420Z,161.43
2019-02-08T08:00:32.206Z,88.37
2019-02-08T08:04:01.000Z,86.30
2019-02-08T08:07:21.516Z,94.67
2019-02-08T08:10:33.836Z,100.97
2019-02-08T08:13:49.388Z,101.23
2019-02-08T08:17:27.910Z,98.47
2019-02-08T08:20:43.962Z,93.07
2019-02-08T08:24:13.025Z,100.20
2019-02-08T08:27:34.625Z,94.63
2019-02-08T08:30:50.753Z,97.33
2019-02-08T08:34:04.769Z,98.73
2019-02-08T08:38:03.522Z,97.23
2019-02-08T08:41:23.990Z,94.40
2019-02-08T08:45:03.870Z,95.53
2019-02-08T08:48:28.506Z,95.63
2019-02-08T08:52:38.431Z,101.87
2019-02-08T08:56:16.081Z,101.23
2019-02-08T08:59:29.754Z,95.70
2019-02-08T09:02:43.723Z,97.33
2019-02-08T09:06:10.180Z,87.33
2019-02-08T09:09:52.952Z,98.33
2019-02-08T09:13:33.264Z,89.77
2019-02-08T09:17:33.932Z,89.47
2019-02-08T09:21:20.966Z,83.83
2019-02-08T09:25:13.985Z,82.70
2019-02-08T09:28:49.267Z,65.40
2019-02-08T09:32:39.662Z,60.33
2019-02-08T09:36:20.761Z,60.20
2019-02-08T09:40:33.548Z,63.27
2019-02-08T09:44:20.858Z,60.83
2019-02-08T09:47:55.047Z,55.00
2019-02-08T09:51:23.833Z,58.77
2019-02-08T09:54:59.442Z,59.10
2019-02-08T09:59:02.956Z,59.97
2019-02-08T10:02:42.222Z,53.27
2019-02-08T10:06:26.801Z,52.07
2019-02-08T10:10:07.044Z,53.43
2019-02-08T10:13:43.077Z,56.67
2019-02-08T10:17:37.488Z,52.97
2019-02-08T10:21:12.416Z,57.40
2019-02-08T10:24:53.444Z,50.00
2019-02-08T10:28:50.848Z,53.50
2019-02-08T10:33:00.838Z,47.90
2019-02-08T10:36:48.238Z,49.20
2019-02-08T10:40:48.599Z,52.73
2019-02-08T10:44:35.700Z,52.17
2019-02-08T10:48:30.146Z,44.83
2019-02-08T10:52:11.220Z,44.73
2019-02-08T10:55:50.963Z,47.40
2019-02-08T10:59:35.104Z,47.50
2019-02-08T11:03:16.256Z,44.60
2019-02-08T11:06:57.359Z,46.20
2019-02-08T11:10:41.175Z,44.67
2019-02-08T11:14:20.161Z,43.27
2019-02-08T11:18:10.421Z,49.00
2019-02-08T11:21:14.628Z,44.10
2019-02-08T11:24:20.656Z,46.47
2019-02-08T11:27:24.868Z,47.30
2019-02-08T11:30:29.050Z,46.40
2019-02-08T11:33:33.269Z,46.77
2019-02-08T11:36:37.452Z,49.23
2019-02-08T11:39:41.771Z,48.10
2019-02-08T11:42:45.869Z,42.60
2019-02-08T11:45:50.064Z,47.10
2019-02-08T11:48:54.215Z,45.60
2019-02-08T11:51:58.364Z,49.50
2019-02-08T11:55:02.464Z,46.17
2019-02-08T11:58:07.398Z,49.03
2019-02-08T12:01:11.563Z,51.57
2019-02-08T12:04:15.723Z,49.17
2019-02-08T12:07:19.889Z,48.97
2019-02-08T12:10:24.265Z,48.10
2019-02-08T12:13:28.552Z,47.67
2019-02-08T12:16:32.713Z,46.23
2019-02-08T12:19:36.812Z,49.27
2019-02-08T12:22:41.149Z,48.77
2019-02-08T12:25:45.322Z,52.03
2019-02-08T12:28:49.744Z,49.50
2019-02-08T12:31:54.039Z,52.47
2019-02-08T12:34:58.255Z,49.20
2019-02-08T12:38:02.367Z,47.90
2019-02-08T12:41:09.819Z,53.63
2019-02-08T12:44:13.947Z,49.57
2019-02-08T12:47:19.926Z,50.33
2019-02-08T12:50:24.023Z,48.33
2019-02-08T12:53:28.236Z,42.13
2019-02-08T12:56:32.339Z,42.77
2019-02-08T12:59:36.527Z,44.03
2019-02-08T13:02:40.655Z,41.90
2019-02-08T13:05:44.898Z,43.33
2019-02-08T13:08:49.068Z,43.60
2019-02-08T13:11:53.301Z,45.33
2019-02-08T13:14:57.470Z,45.97
2019-02-08T13:18:01.673Z,44.57
2019-02-08T13:21:05.756Z,42.07
2019-02-08T13:24:09.890Z,42.83
2019-02-08T13:27:14.060Z,38.97
2019-02-08T13:30:23.712Z,38.97
2019-02-08T13:33:31.435Z,36.83
2019-02-08T13:36:35.625Z,44.13
2019-02-08T13:39:39.792Z,44.70
2019-02-08T13:42:44.048Z,42.37
2019-02-08T13:45:48.270Z,48.03
2019-02-08T13:48:52.449Z,39.57
2019-02-08T13:51:56.550Z,41.63
2019-02-08T13:55:00.761Z,44.77
2019-02-08T13:58:06.147Z,45.13
2019-02-08T14:01:10.477Z,51.07
2019-02-08T14:04:14.575Z,43.40
2019-02-08T14:07:18.689Z,46.53
2019-02-08T14:10:22.858Z,44.70
2019-02-08T14:13:27.053Z,46.30
2019-02-08T14:16:31.172Z,42.00
2019-02-08T14:19:35.344Z,42.63
2019-02-08T14:22:39.532Z,43.10
2019-02-08T14:25:43.660Z,46.23
2019-02-08T14:28:47.852Z,43.13
2019-02-08T14:31:53.076Z,45.30
2019-02-08T14:34:57.328Z,42.37
2019-02-08T14:38:01.948Z,40.63
2019-02-08T14:41:06.173Z,43.03
2019-02-08T14:44:10.737Z,39.17
2019-02-08T14:47:14.905Z,43.50
2019-02-08T14:50:21.421Z,40.97
2019-02-08T14:53:25.654Z,44.83
2019-02-08T14:56:30.892Z,40.17
2019-02-08T14:59:35.280Z,45.97
2019-02-08T15:02:39.862Z,47.57
2019-02-08T15:05:44.152Z,45.93
2019-02-08T15:08:48.488Z,45.37
2019-02-08T15:11:52.721Z,51.23
2019-02-08T15:14:57.134Z,45.53
2019-02-08T15:18:01.303Z,45.80
2019-02-08T15:21:05.564Z,38.33
2019-02-08T15:24:09.648Z,43.03
2019-02-08T15:27:13.775Z,45.17
2019-02-08T15:30:20.658Z,52.00
2019-02-08T15:33:24.809Z,53.37
2019-02-08T15:36:29.020Z,52.20
2019-02-08T15:39:33.154Z,51.63
2019-02-08T15:42:37.269Z,48.80
2019-02-08T15:45:43.081Z,50.47
2019-02-08T15:48:47.321Z,53.13
2019-02-08T15:51:51.592Z,49.67
2019-02-08T15:54:56.063Z,50.90
2019-02-08T15:58:00.300Z,54.03
2019-02-08T16:01:07.076Z,47.80
2019-02-08T16:04:11.361Z,51.53
2019-02-08T16:07:15.561Z,47.87
2019-02-08T16:10:19.705Z,56.70
2019-02-08T16:13:23.926Z,61.53
2019-02-08T16:16:28.627Z,64.00
2019-02-08T16:19:32.835Z,69.00
2019-02-08T16:22:37.401Z,75.93
2019-02-08T16:25:41.582Z,86.83
2019-02-08T16:28:45.841Z,90.57
2019-02-08T16:31:50.196Z,100.47
2019-02-08T16:34:54.427Z,105.33
2019-02-08T16:37:58.644Z,112.40
2019-02-08T16:41:02.852Z,111.03
2019-02-08T16:44:07.028Z,122.13
2019-02-08T16:47:11.533Z,124.73
2019-02-08T16:50:18.173Z,119.33
2019-02-08T16:53:22.316Z,117.90
2019-02-08T16:56:26.508Z,120.93
2019-02-08T16:59:30.644Z,117.10
2019-02-08T17:02:34.799Z,133.63
2019-02-08T17:05:38.933Z,137.60
2019-02-08T17:08:43.151Z,141.93
2019-02-08T17:11:47.652Z,154.53
2019-02-08T17:14:53.347Z,179.17
2019-02-08T17:17:57.575Z,178.50
2019-02-08T17:21:01.708Z,183.50
2019-02-08T17:24:05.933Z,192.13
2019-02-08T17:27:11.252Z,196.03
2019-02-08T17:30:16.471Z,216.53
2019-02-08T17:33:20.700Z,220.23
2019-02-08T17:36:25.043Z,221.90
2019-02-08T17:39:29.194Z,224.70
2019-02-08T17:42:33.415Z,230.80
2019-02-08T17:45:37.588Z,226.83
2019-02-08T17:48:41.947Z,227.53
2019-02-08T17:51:46.133Z,222.63
2019-02-08T17:54:50.434Z,209.93
2019-02-08T17:57:54.793Z,213.40
2019-02-08T18:01:01.285Z,212.90
2019-02-08T18:04:05.445Z,210.83
2019-02-08T18:07:09.683Z,218.20
2019-02-08T18:10:17.661Z,214.00
2019-02-08T18:13:21.813Z,198.33
2019-02-08T18:16:26.053Z,196.43
2019-02-08T18:19:30.315Z,201.83
2019-02-08T18:22:34.448Z,185.40
2019-02-08T18:25:38.596Z,195.83
2019-02-08T18:28:42.765Z,189.70
2019-02-08T18:31:47.090Z,184.37
2019-02-08T18:34:51.375Z,182.53
2019-02-08T18:37:55.608Z,181.83
2019-02-08T18:40:59.781Z,176.53
2019-02-08T18:44:04.009Z,168.67
2019-02-08T18:47:08.850Z,174.83
2019-02-08T18:50:16.657Z,182.77
2019-02-08T18:53:21.001Z,182.37
2019-02-08T18:56:25.368Z,183.93
2019-02-08T18:59:30.917Z,187.00
2019-02-08T19:02:35.481Z,196.07
2019-02-08T19:05:42.415Z,202.20
2019-02-08T19:08:46.922Z,212.17
2019-02-08T19:11:51.273Z,210.20
2019-02-08T19:14:55.545Z,208.50
2019-02-08T19:18:02.180Z,226.70
2019-02-08T19:21:06.396Z,232.73
2019-02-08T19:24:10.992Z,227.57
2019-02-08T19:27:15.215Z,226.20
2019-02-08T19:30:21.729Z,231.40
2019-02-08T19:33:25.954Z,225.93
2019-02-08T19:36:30.200Z,216.33
2019-02-08T19:39:34.554Z,225.43
2019-02-08T19:42:38.768Z,220.07
2019-02-08T19:45:43.036Z,222.97
2019-02-08T19:48:47.228Z,218.67
2019-02-08T19:51:51.501Z,243.00
2019-02-08T19:54:55.747Z,216.27
2019-02-08T19:57:59.959Z,220.20
2019-02-08T20:01:04.140Z,226.07
2019-02-08T20:04:08.484Z,247.43
2019-02-08T20:07:12.942Z,245.83
2019-02-08T20:10:22.273Z,245.03
2019-02-08T20:13:27.283Z,251.67
2019-02-08T20:16:31.542Z,264.43
2019-02-08T20:19:35.850Z,289.03
2019-02-08T20:22:40.097Z,309.73
2019-02-08T20:25:44.393Z,305.43
2019-02-08T20:28:48.628Z,310.47
2019-02-08T20:31:52.810Z,307.23
2019-02-08T20:34:57.175Z,299.07
2019-02-08T20:38:01.516Z,293.07
2019-02-08T20:41:05.764Z,296.10
2019-02-08T20:44:09.993Z,280.17
2019-02-08T20:47:14.370Z,281.43
2019-02-08T20:50:18.841Z,270.13
2019-02-08T20:53:23.132Z,269.40
2019-02-08T20:56:27.370Z,274.03
2019-02-08T20:59:32.297Z,293.57
2019-02-08T21:02:37.187Z,287.20
2019-02-08T21:05:42.596Z,286.87
2019-02-08T21:08:46.803Z,288.53
2019-02-08T21:11:51.459Z,284.07
2019-02-08T21:14:55.665Z,303.97
2019-02-08T21:17:59.907Z,307.80
2019-02-08T21:21:05.394Z,296.00
2019-02-08T21:24:09.660Z,314.63
2019-02-08T21:27:14.368Z,299.97
2019-02-08T21:30:18.592Z,296.63
2019-02-08T21:33:22.765Z,303.03
2019-02-08T21:36:27.029Z,312.63
2019-02-08T21:39:31.378Z,307.10
2019-02-08T21:42:35.709Z,319.30
2019-02-08T21:45:41.636Z,326.07
2019-02-08T21:48:46.478Z,317.13
2019-02-08T21:51:50.671Z,332.47
2019-02-08T21:54:54.952Z,353.03
2019-02-08T21:57:59.252Z,326.70
2019-02-08T22:01:03.424Z,318.47
2019-02-08T22:04:07.548Z,312.97
2019-02-08T22:07:11.718Z,299.20
2019-02-08T22:10:15.999Z,299.90
2019-02-08T22:13:20.453Z,296.60
2019-02-08T22:16:25.165Z,290.67
2019-02-08T22:19:29.386Z,296.23
2019-02-08T22:22:33.820Z,313.70
2019-02-08T22:25:38.246Z,310.57
2019-02-08T22:28:42.353Z,323.83
2019-02-08T22:31:46.803Z,323.63
2019-02-08T22:34:50.916Z,323.73
2019-02-08T22:37:55.082Z,325.50
2019-02-08T22:40:59.598Z,325.83
2019-02-08T22:44:04.115Z,344.40
2019-02-08T22:47:08.278Z,340.33
2019-02-08T22:50:13.053Z,359.53
2019-02-08T22:53:17.194Z,361.73
2019-02-08T22:56:21.528Z,325.53
2019-02-08T22:59:25.701Z,335.47
2019-02-08T23:02:29.952Z,333.60
2019-02-08T23:05:34.057Z,356.33
2019-02-08T23:08:38.216Z,340.43
2019-02-08T23:11:42.394Z,343.30
2019-02-08T23:14:46.532Z,338.47
2019-02-08T23:17:50.659Z,355.97
2019-02-08T23:20:54.911Z,345.73
2019-02-08T23:23:59.200Z,342.57
2019-02-08T23:27:04.036Z,336.37
2019-02-08T23:30:09.239Z,333.53
2019-02-08T23:33:13.433Z,334.07
2019-02-08T23:36:17.608Z,322.30
2019-02-08T23:39:21.873Z,328.87
2019-02-08T23:42:26.038Z,310.33
2019-02-08T23:45:30.247Z,296.93
2019-02-08T23:48:34.376Z,284.57
2019-02-08T23:51:38.513Z,294.60
2019-02-08T23:54:42.706Z,292.10
2019-02-08T23:57:46.913Z,286.43
